Time;durP1;ratioP1;P1;durP2;ratioP2;P2;SDS_P1;SDS_P2;PMS_P1;PMS_P2;Temp;Humidity;BMP_temperature;BMP_pressure;BME280_temperature;BME280_humidity;BME280_pressure;Samples;Min_cycle;Max_cycle;Signal;HPM_P1;HPM_P2
2023/12/10 00:00:38;;;;;;;42.65;9.57;;;;;;;8.96;100.00;99614.56;5089257;27;20163;-73
2023/12/10 00:03:07;;;;;;;42.60;8.10;;;;;;;9.02;100.00;99638.03;5094008;27;20043;-73
2023/12/10 00:05:32;;;;;;;55.42;7.53;;;;;;;9.00;100.00;99637.31;5106452;27;20101;-74
2023/12/10 00:07:58;;;;;;;40.97;7.30;;;;;;;9.05;100.00;99634.31;5108255;27;20035;-74
2023/12/10 00:10:24;;;;;;;46.38;8.52;;;;;;;9.10;100.00;99628.63;5101012;27;20064;-73
2023/12/10 00:12:50;;;;;;;40.50;7.60;;;;;;;9.07;100.00;99635.03;5108564;27;20028;-73
2023/12/10 00:15:15;;;;;;;54.80;8.70;;;;;;;9.10;100.00;99633.94;5111461;27;20028;-73
2023/12/10 00:17:41;;;;;;;47.70;8.65;;;;;;;9.16;100.00;99634.31;5113317;27;20361;-74
2023/12/10 00:20:07;;;;;;;38.17;7.68;;;;;;;9.13;100.00;99633.69;5111349;27;20072;-73
2023/12/10 00:22:35;;;;;;;51.50;8.80;;;;;;;9.13;100.00;99641.69;5111975;27;20036;-73
2023/12/10 00:25:06;;;;;;;37.78;8.38;;;;;;;9.15;100.00;99632.63;5092975;27;20035;-74
2023/12/10 00:27:35;;;;;;;41.50;7.53;;;;;;;9.15;100.00;99635.28;5113028;27;20036;-73
2023/12/10 00:30:13;;;;;;;39.38;9.07;;;;;;;9.14;100.00;99643.41;5112549;27;20142;-73
2023/12/10 00:32:39;;;;;;;48.30;7.93;;;;;;;9.16;100.00;99638.78;5109614;27;20028;-73
2023/12/10 00:35:08;;;;;;;46.70;8.77;;;;;;;9.16;100.00;99650.28;5107729;27;20106;-74
2023/12/10 00:37:34;;;;;;;47.83;8.63;;;;;;;9.15;100.00;99647.75;5096570;27;20082;-73
2023/12/10 00:40:00;;;;;;;41.83;8.63;;;;;;;9.20;100.00;99651.75;5104316;27;20139;-73
2023/12/10 00:42:25;;;;;;;40.00;8.13;;;;;;;9.20;100.00;99648.25;5108065;27;20024;-73
2023/12/10 00:44:51;;;;;;;49.15;8.30;;;;;;;9.10;100.00;99660.53;5110390;27;20046;-73
2023/12/10 00:47:16;;;;;;;57.20;8.50;;;;;;;9.09;100.00;99667.69;5095230;27;20028;-73
2023/12/10 00:49:43;;;;;;;47.38;9.07;;;;;;;8.98;100.00;99684.41;5105375;27;20079;-73
2023/12/10 00:52:08;;;;;;;43.95;8.65;;;;;;;8.84;100.00;99681.13;5107407;27;21043;-73
2023/12/10 00:54:34;;;;;;;49.08;8.15;;;;;;;8.85;100.00;99686.31;5105593;27;20812;-73
2023/12/10 00:57:06;;;;;;;59.05;8.93;;;;;;;8.74;100.00;99700.41;5112999;27;20039;-73
2023/12/10 00:59:35;;;;;;;54.55;9.75;;;;;;;8.79;100.00;99700.06;5113948;27;20039;-73
2023/12/10 01:02:01;;;;;;;46.00;7.40;;;;;;;8.76;100.00;99716.25;5096960;27;20067;-73
2023/12/10 01:04:30;;;;;;;43.30;9.02;;;;;;;8.79;100.00;99708.91;5111967;27;20023;-74
2023/12/10 01:06:56;;;;;;;45.47;8.30;;;;;;;8.86;100.00;99709.28;5094637;27;20036;-73
2023/12/10 01:09:21;;;;;;;59.33;9.55;;;;;;;8.82;100.00;99718.44;5103787;27;20086;-73
2023/12/10 01:11:47;;;;;;;50.20;9.77;;;;;;;8.82;100.00;99716.63;5097013;27;20028;-73
2023/12/10 01:14:13;;;;;;;43.47;7.43;;;;;;;8.76;100.00;99722.41;5101114;27;20044;-73
2023/12/10 01:16:40;;;;;;;41.50;8.07;;;;;;;8.74;100.00;99718.19;5109406;27;20031;-73
2023/12/10 01:19:06;;;;;;;47.92;8.45;;;;;;;8.76;100.00;99724.22;5074354;27;20135;-72
2023/12/10 01:21:37;;;;;;;40.88;8.98;;;;;;;8.74;100.00;99715.53;5105752;27;20036;-74
2023/12/10 01:24:23;;;;;;;55.33;9.40;;;;;;;8.81;100.00;99722.91;5103527;27;20114;-74
2023/12/10 01:26:48;;;;;;;63.47;9.07;;;;;;;8.74;100.00;99720.84;5088483;27;20228;-73
2023/12/10 01:29:15;;;;;;;48.92;7.88;;;;;;;8.71;100.00;99727.22;5109731;27;20042;-74
2023/12/10 01:31:41;;;;;;;53.25;8.00;;;;;;;8.68;100.00;99735.38;5084086;27;20081;-72
2023/12/10 01:34:06;;;;;;;44.65;8.70;;;;;;;8.64;100.00;99728.63;5083304;27;20498;-72
2023/12/10 01:36:32;;;;;;;34.63;8.38;;;;;;;8.64;100.00;99725.13;5101385;27;20032;-75
2023/12/10 01:38:58;;;;;;;41.15;8.20;;;;;;;8.70;100.00;99727.31;5106286;27;20039;-73
2023/12/10 01:41:25;;;;;;;43.67;6.53;;;;;;;8.64;100.00;99727.78;5109898;27;20099;-75
2023/12/10 01:43:54;;;;;;;45.10;8.20;;;;;;;8.60;100.00;99731.63;5109442;27;20032;-74
2023/12/10 01:46:21;;;;;;;43.85;7.35;;;;;;;8.60;100.00;99732.47;5109214;27;20046;-75
2023/12/10 01:48:50;;;;;;;37.45;7.72;;;;;;;8.56;100.00;99731.84;5108727;27;20101;-76
2023/12/10 01:51:16;;;;;;;42.40;9.10;;;;;;;8.62;100.00;99737.66;5085644;27;20123;-74
2023/12/10 01:53:42;;;;;;;39.88;7.47;;;;;;;8.56;100.00;99741.63;5110354;27;20537;-74
2023/12/10 01:56:09;;;;;;;39.80;6.72;;;;;;;8.55;100.00;99739.94;5081258;27;20062;-74
2023/12/10 01:58:38;;;;;;;44.55;7.05;;;;;;;8.66;100.00;99736.47;5092582;27;20032;-74
2023/12/10 02:01:05;;;;;;;34.25;6.55;;;;;;;8.61;100.00;99743.94;5103586;27;20044;-74
2023/12/10 02:03:33;;;;;;;33.42;6.90;;;;;;;8.65;100.00;99745.41;5079701;27;20032;-74
2023/12/10 02:05:59;;;;;;;43.60;7.53;;;;;;;8.63;100.00;99740.19;5088656;27;20028;-74
2023/12/10 02:08:24;;;;;;;41.42;7.57;;;;;;;8.61;100.00;99733.31;5090518;27;20042;-74
2023/12/10 02:10:56;;;;;;;44.63;6.47;;;;;;;8.56;100.00;99733.66;5103002;27;20517;-75
2023/12/10 02:13:23;;;;;;;44.80;7.07;;;;;;;8.48;100.00;99741.31;5098075;27;20194;-74
2023/12/10 02:15:48;;;;;;;44.08;8.20;;;;;;;8.46;100.00;99740.59;5108622;27;20042;-73
2023/12/10 02:18:17;;;;;;;35.42;6.43;;;;;;;8.40;100.00;99741.88;5107733;27;20039;-75
2023/12/10 02:20:43;;;;;;;39.28;6.18;;;;;;;8.43;100.00;99749.63;5102737;27;20040;-75
2023/12/10 02:23:20;;;;;;;39.30;6.80;;;;;;;8.34;100.00;99747.63;5104499;27;20525;-75
2023/12/10 02:25:50;;;;;;;45.65;7.68;;;;;;;8.42;100.00;99760.34;5110730;27;20085;-76
2023/12/10 02:28:22;;;;;;;34.75;7.47;;;;;;;8.36;100.00;99758.13;5109312;27;20035;-75
2023/12/10 02:30:48;;;;;;;35.03;6.82;;;;;;;8.25;100.00;99762.38;5104303;27;20455;-72
2023/12/10 02:33:14;;;;;;;34.38;7.28;;;;;;;8.27;100.00;99763.13;5103533;27;20043;-74
2023/12/10 02:35:39;;;;;;;41.90;7.47;;;;;;;8.29;100.00;99763.88;5090197;27;20046;-75
2023/12/10 02:38:07;;;;;;;40.90;6.65;;;;;;;8.21;100.00;99760.91;5108781;27;20516;-75
2023/12/10 02:40:33;;;;;;;42.42;7.90;;;;;;;8.27;100.00;99773.75;5106713;27;20043;-75
2023/12/10 02:43:05;;;;;;;43.83;7.47;;;;;;;8.22;100.00;99773.22;5107035;27;20140;-74
2023/12/10 02:45:34;;;;;;;42.42;6.90;;;;;;;8.30;100.00;99780.66;5109931;27;20761;-74
2023/12/10 02:47:59;;;;;;;41.53;7.70;;;;;;;8.21;100.00;99781.31;5088796;27;20039;-74
2023/12/10 02:50:25;;;;;;;45.00;7.75;;;;;;;8.30;100.00;99785.97;5107000;27;20043;-75
2023/12/10 02:52:50;;;;;;;44.50;8.95;;;;;;;8.29;100.00;99795.75;5087794;27;20032;-74
2023/12/10 02:55:16;;;;;;;50.55;8.00;;;;;;;8.22;100.00;99799.78;5113771;27;20031;-74
2023/12/10 02:57:44;;;;;;;41.00;7.50;;;;;;;8.15;100.00;99781.75;5110173;27;20054;-74
2023/12/10 03:00:15;;;;;;;39.63;6.82;;;;;;;8.22;100.00;99806.88;5114236;27;20141;-73
2023/12/10 03:02:41;;;;;;;38.45;6.97;;;;;;;8.18;100.00;99822.22;5102150;27;20157;-74
2023/12/10 03:05:07;;;;;;;44.83;6.97;;;;;;;8.16;100.00;99809.97;5114865;27;20059;-74
2023/12/10 03:07:33;;;;;;;44.92;6.82;;;;;;;8.08;100.00;99801.69;5110918;27;20061;-74
2023/12/10 03:10:00;;;;;;;37.50;6.78;;;;;;;8.14;100.00;99815.41;5106067;27;20575;-73
2023/12/10 03:12:25;;;;;;;43.08;7.90;;;;;;;8.11;100.00;99815.63;5114840;27;20032;-74
2023/12/10 03:14:51;;;;;;;34.80;8.40;;;;;;;8.03;100.00;99826.78;5096593;27;20069;-73
2023/12/10 03:17:16;;;;;;;40.03;6.65;;;;;;;8.10;100.00;99808.63;5113969;27;20257;-74
2023/12/10 03:19:44;;;;;;;40.05;7.20;;;;;;;7.98;100.00;99812.97;5116397;27;20480;-75
2023/12/10 03:22:09;;;;;;;49.33;7.85;;;;;;;8.04;100.00;99820.50;5109876;27;20043;-73
2023/12/10 03:24:38;;;;;;;39.90;6.80;;;;;;;8.04;100.00;99830.28;5097974;27;20105;-73
2023/12/10 03:27:06;;;;;;;53.00;8.10;;;;;;;8.04;100.00;99817.84;5110414;27;20032;-74
2023/12/10 03:29:41;;;;;;;47.17;7.28;;;;;;;7.98;100.00;99834.22;5111364;27;20036;-74
2023/12/10 03:32:14;;;;;;;42.30;7.22;;;;;;;7.97;100.00;99823.69;5105571;27;20059;-74
2023/12/10 03:34:40;;;;;;;39.78;6.90;;;;;;;7.94;100.00;99837.19;5108722;27;20040;-74
2023/12/10 03:37:06;;;;;;;33.15;6.75;;;;;;;7.91;100.00;99830.25;5109153;27;20032;-73
2023/12/10 03:39:36;;;;;;;33.65;8.38;;;;;;;7.95;100.00;99833.56;5104023;27;20044;-73
2023/12/10 03:42:05;;;;;;;39.85;7.07;;;;;;;7.92;100.00;99831.97;5096106;27;20043;-73
2023/12/10 03:44:32;;;;;;;48.28;6.78;;;;;;;7.88;100.00;99824.31;5109919;27;20043;-72
2023/12/10 03:47:03;;;;;;;44.72;7.45;;;;;;;8.02;100.00;99840.13;5101287;27;20028;-73
2023/12/10 03:49:30;;;;;;;45.20;7.22;;;;;;;7.93;100.00;99839.00;5096076;27;20066;-74
2023/12/10 03:51:57;;;;;;;40.15;7.50;;;;;;;7.98;100.00;99833.34;5101703;27;20060;-73
2023/12/10 03:54:23;;;;;;;49.97;8.05;;;;;;;8.00;100.00;99832.28;5096520;27;20036;-73
2023/12/10 03:56:52;;;;;;;43.40;7.13;;;;;;;7.96;100.00;99822.84;5087569;27;20036;-74
2023/12/10 03:59:17;;;;;;;44.58;8.18;;;;;;;8.01;100.00;99835.78;5091833;27;20062;-74
2023/12/10 04:01:43;;;;;;;50.17;7.72;;;;;;;7.98;100.00;99830.69;5107875;27;20693;-74
2023/12/10 04:04:09;;;;;;;44.95;6.78;;;;;;;7.95;100.00;99836.22;5100914;27;20047;-73
2023/12/10 04:06:39;;;;;;;50.08;9.02;;;;;;;8.01;100.00;99852.56;5114603;27;20035;-74
2023/12/10 04:09:06;;;;;;;48.45;8.00;;;;;;;7.97;100.00;99847.56;5085511;27;20032;-74
2023/12/10 04:11:38;;;;;;;39.40;7.07;;;;;;;8.04;100.00;99848.88;5113095;27;20032;-74
2023/12/10 04:14:09;;;;;;;43.33;7.15;;;;;;;8.03;100.00;99849.81;5111801;27;20044;-75
2023/12/10 04:16:39;;;;;;;38.83;7.90;;;;;;;7.98;100.00;99858.09;5106111;27;20160;-73
2023/12/10 04:19:07;;;;;;;47.45;8.00;;;;;;;7.92;100.00;99869.13;5108662;27;20023;-73
2023/12/10 04:21:36;;;;;;;44.20;8.43;;;;;;;8.02;100.00;99866.69;5096680;27;20043;-74
2023/12/10 04:24:07;;;;;;;50.75;8.45;;;;;;;8.04;100.00;99862.16;5106477;27;20031;-74
2023/12/10 04:26:33;;;;;;;57.03;9.07;;;;;;;8.01;100.00;99868.50;5106741;27;20071;-73
2023/12/10 04:28:59;;;;;;;46.55;9.18;;;;;;;8.02;100.00;99874.66;5096291;27;20031;-73
2023/12/10 04:31:24;;;;;;;43.47;8.40;;;;;;;8.03;100.00;99865.72;5106480;27;20051;-74
2023/12/10 04:33:50;;;;;;;39.53;7.28;;;;;;;8.06;100.00;99854.91;5077864;27;20067;-73
2023/12/10 04:36:16;;;;;;;40.42;7.47;;;;;;;8.12;100.00;99858.94;5101250;27;20064;-74
2023/12/10 04:38:42;;;;;;;38.65;7.00;;;;;;;8.07;100.00;99877.84;5103288;27;20028;-74
2023/12/10 04:41:11;;;;;;;35.42;7.28;;;;;;;8.07;100.00;99869.88;5100515;27;20117;-73
2023/12/10 04:43:37;;;;;;;39.28;7.18;;;;;;;8.10;100.00;99880.31;5103093;27;20035;-74
2023/12/10 04:46:09;;;;;;;42.83;7.05;;;;;;;8.10;100.00;99869.69;5112537;27;20032;-74
2023/12/10 04:48:44;;;;;;;;;;;;;;;8.08;100.00;99876.88;5114563;27;20063;-75
2023/12/10 04:51:10;;;;;;;43.08;7.93;;;;;;;8.07;100.00;99877.84;5105257;27;19920;-73
2023/12/10 04:53:36;;;;;;;51.00;8.35;;;;;;;8.09;100.00;99883.06;5095473;27;20553;-73
2023/12/10 04:56:11;;;;;;;41.72;7.68;;;;;;;8.01;100.00;99886.22;5106354;27;20036;-74
2023/12/10 04:58:36;;;;;;;44.63;7.45;;;;;;;8.05;100.00;99877.97;5108273;27;20067;-74
2023/12/10 05:01:08;;;;;;;47.92;8.77;;;;;;;8.08;100.00;99886.66;5111038;27;20043;-73
2023/12/10 05:03:33;;;;;;;37.07;7.53;;;;;;;8.09;100.00;99885.72;5085172;27;20034;-73
2023/12/10 05:05:59;;;;;;;34.17;7.40;;;;;;;8.16;100.00;99877.22;5106014;27;20043;-73
2023/12/10 05:08:25;;;;;;;43.42;7.03;;;;;;;8.15;100.00;99886.16;5111931;27;20071;-74
2023/12/10 05:10:51;;;;;;;46.33;6.80;;;;;;;8.07;100.00;99888.47;5105395;27;20036;-73
2023/12/10 05:13:17;;;;;;;36.70;7.70;;;;;;;8.11;100.00;99889.97;5102854;27;20027;-74
2023/12/10 05:15:42;;;;;;;32.05;7.22;;;;;;;8.11;100.00;99899.72;5112715;27;20081;-73
2023/12/10 05:18:11;;;;;;;44.55;7.00;;;;;;;8.09;100.00;99883.91;5111197;27;20032;-74
2023/12/10 05:20:37;;;;;;;47.53;7.60;;;;;;;8.13;100.00;99895.16;5102780;27;20049;-73
2023/12/10 05:23:03;;;;;;;44.17;8.30;;;;;;;8.08;100.00;99903.44;5099347;27;20603;-73
2023/12/10 05:25:32;;;;;;;51.25;7.82;;;;;;;8.16;100.00;99905.59;5111227;27;20036;-73
2023/12/10 05:28:05;;;;;;;42.17;7.95;;;;;;;8.12;100.00;99915.56;5112415;27;20028;-74
2023/12/10 05:30:31;;;;;;;38.85;6.95;;;;;;;8.19;100.00;99913.34;5108326;27;21143;-73
2023/12/10 05:33:05;;;;;;;39.92;7.25;;;;;;;8.18;100.00;99911.63;5102488;27;20112;-73
2023/12/10 05:35:32;;;;;;;46.47;8.13;;;;;;;8.17;100.00;99909.94;5106094;27;20463;-73
2023/12/10 05:38:01;;;;;;;42.78;8.90;;;;;;;8.18;100.00;99927.56;5105109;27;20538;-74
2023/12/10 05:40:32;;;;;;;46.92;6.57;;;;;;;8.22;100.00;99926.41;5106325;27;20086;-73
2023/12/10 05:43:00;;;;;;;45.03;8.52;;;;;;;8.16;100.00;99921.50;5109162;27;21000;-74
2023/12/10 05:45:31;;;;;;;38.25;7.05;;;;;;;8.20;100.00;99930.97;5095368;27;20040;-75
2023/12/10 05:47:56;;;;;;;37.80;7.25;;;;;;;8.23;100.00;99933.41;5090157;27;21043;-75
2023/12/10 05:50:23;;;;;;;34.15;6.20;;;;;;;8.25;100.00;99926.19;5092196;27;20048;-75
2023/12/10 05:52:48;;;;;;;44.08;8.05;;;;;;;8.28;100.00;99931.28;5076071;28;20028;-75
2023/12/10 05:55:14;;;;;;;38.70;7.10;;;;;;;8.25;100.00;99936.81;5092642;28;20858;-75
2023/12/10 05:57:40;;;;;;;42.00;7.93;;;;;;;8.27;100.00;99949.03;5092260;28;20032;-75
2023/12/10 06:00:06;;;;;;;40.58;7.15;;;;;;;8.30;100.00;99948.84;5081777;28;20528;-76
2023/12/10 06:02:38;;;;;;;29.83;5.97;;;;;;;8.27;100.00;99942.88;5088087;28;20039;-76
2023/12/10 06:05:07;;;;;;;40.88;7.53;;;;;;;8.26;100.00;99970.38;5088217;28;20051;-75
2023/12/10 06:07:32;;;;;;;35.75;7.13;;;;;;;8.28;100.00;99972.00;5085503;28;20028;-75
2023/12/10 06:10:07;;;;;;;34.58;7.63;;;;;;;8.28;100.00;99966.69;5081059;28;20529;-76
2023/12/10 06:12:32;;;;;;;50.38;9.02;;;;;;;8.34;100.00;99977.84;5079838;28;20032;-76
2023/12/10 06:14:58;;;;;;;45.75;7.65;;;;;;;8.30;100.00;99986.00;5063253;28;20105;-74
2023/12/10 06:17:24;;;;;;;37.45;6.53;;;;;;;8.30;100.00;99983.34;5087329;27;20409;-74
2023/12/10 06:19:49;;;;;;;37.97;6.80;;;;;;;8.31;100.00;99993.03;5087945;28;20082;-75
2023/12/10 06:22:15;;;;;;;40.97;7.05;;;;;;;8.35;100.00;100016.72;5065982;28;20628;-75
2023/12/10 06:24:40;;;;;;;53.22;9.60;;;;;;;8.35;100.00;100000.78;5077761;28;20577;-74
2023/12/10 06:27:06;;;;;;;46.63;7.82;;;;;;;8.35;100.00;99995.47;5084884;28;20413;-75
2023/12/10 06:29:44;;;;;;;39.78;7.32;;;;;;;8.40;100.00;100020.81;5078979;28;20055;-75
2023/12/10 06:32:10;;;;;;;36.78;6.75;;;;;;;8.43;100.00;100030.38;5089947;28;20028;-74
2023/12/10 06:34:39;;;;;;;53.35;7.50;;;;;;;8.47;100.00;100053.13;5087059;28;20036;-75
2023/12/10 06:37:07;;;;;;;46.70;7.60;;;;;;;8.44;100.00;100040.91;5066873;28;21447;-74
2023/12/10 06:39:33;;;;;;;41.97;6.40;;;;;;;8.35;100.00;100054.78;5094474;28;20106;-75
2023/12/10 06:41:59;;;;;;;35.47;7.90;;;;;;;8.38;100.00;100074.97;5086753;28;20047;-75
2023/12/10 06:44:24;;;;;;;30.17;6.35;;;;;;;8.38;100.00;100075.81;5080921;28;20052;-74
2023/12/10 06:46:53;;;;;;;32.00;6.65;;;;;;;8.36;100.00;100072.44;5083612;28;20635;-75
2023/12/10 06:49:19;;;;;;;36.05;6.15;;;;;;;8.41;100.00;100078.28;5087970;28;20044;-75
2023/12/10 06:51:44;;;;;;;35.22;6.65;;;;;;;8.42;100.00;100087.97;5085840;28;21111;-76
2023/12/10 06:54:11;;;;;;;37.88;5.82;;;;;;;8.47;100.00;100098.28;5105637;27;20048;-75
2023/12/10 06:56:39;;;;;;;41.28;6.13;;;;;;;8.51;100.00;100118.38;5106546;27;20166;-76
2023/12/10 06:59:11;;;;;;;44.40;6.85;;;;;;;8.60;100.00;100104.50;5098846;27;20043;-76
2023/12/10 07:01:37;;;;;;;49.05;7.63;;;;;;;8.49;100.00;100110.53;5109745;27;20036;-75
2023/12/10 07:04:08;;;;;;;35.00;6.65;;;;;;;8.61;100.00;100114.16;5114202;27;20838;-75
2023/12/10 07:06:35;;;;;;;35.55;6.57;;;;;;;8.54;100.00;100116.38;5111716;27;20064;-74
2023/12/10 07:09:06;;;;;;;35.17;7.38;;;;;;;8.62;100.00;100113.19;5093975;27;20127;-74
2023/12/10 07:11:35;;;;;;;37.78;6.13;;;;;;;8.62;100.00;100142.44;5116420;27;20038;-75
2023/12/10 07:14:04;;;;;;;41.42;7.47;;;;;;;8.58;100.00;100140.94;5108876;27;20024;-75
2023/12/10 07:16:39;;;;;;;37.00;6.00;;;;;;;8.68;100.00;100136.72;5097641;27;20063;-75
2023/12/10 07:19:11;;;;;;;41.17;8.20;;;;;;;8.70;100.00;100147.25;5094280;27;20024;-75
2023/12/10 07:21:37;;;;;;;49.00;8.77;;;;;;;8.68;100.00;100151.81;5091559;27;20032;-75
2023/12/10 07:24:06;;;;;;;32.83;6.45;;;;;;;8.70;100.00;100155.22;5100240;27;20822;-74
2023/12/10 07:26:38;;;;;;;40.60;6.90;;;;;;;8.76;100.00;100162.78;5109799;27;20035;-75
2023/12/10 07:29:06;;;;;;;36.20;7.50;;;;;;;8.76;100.00;100162.78;5112798;27;20031;-75
2023/12/10 07:31:33;;;;;;;40.72;6.28;;;;;;;8.75;100.00;100161.09;5113330;27;20024;-76
2023/12/10 07:33:59;;;;;;;45.13;7.55;;;;;;;8.80;100.00;100178.44;5101721;27;20074;-75
2023/12/10 07:36:31;;;;;;;42.22;8.32;;;;;;;8.83;100.00;100166.72;5096075;27;20044;-75
2023/12/10 07:39:00;;;;;;;41.95;7.88;;;;;;;8.85;100.00;100185.25;5095955;27;20032;-73
2023/12/10 07:41:32;;;;;;;37.58;6.80;;;;;;;8.81;100.00;100197.88;5103580;27;20059;-76
2023/12/10 07:43:58;;;;;;;42.45;7.80;;;;;;;8.84;100.00;100197.69;5108452;27;20032;-75
2023/12/10 07:46:23;;;;;;;41.22;7.88;;;;;;;8.87;100.00;100204.59;5097547;27;20148;-74
2023/12/10 07:48:49;;;;;;;41.92;6.53;;;;;;;8.84;100.00;100200.34;5104867;27;20082;-75
2023/12/10 07:51:17;;;;;;;40.70;6.32;;;;;;;8.80;100.00;100201.50;5086246;27;20048;-75
2023/12/10 07:53:42;;;;;;;36.22;7.00;;;;;;;8.88;100.00;100209.81;5075464;28;20032;-74
2023/12/10 07:56:09;;;;;;;32.22;5.80;;;;;;;8.93;100.00;100213.00;5092206;28;20028;-75
2023/12/10 07:58:38;;;;;;;40.65;7.03;;;;;;;8.95;100.00;100229.75;5088817;28;20062;-74
2023/12/10 08:01:09;;;;;;;43.00;7.45;;;;;;;8.85;100.00;100222.47;5067380;28;20094;-75
2023/12/10 08:03:37;;;;;;;38.42;6.10;;;;;;;8.84;100.00;100232.25;5082982;28;20057;-75
2023/12/10 08:06:08;;;;;;;39.30;7.28;;;;;;;8.86;100.00;100234.81;5072686;28;20040;-74
2023/12/10 08:08:33;;;;;;;30.75;6.88;;;;;;;8.89;100.00;100240.78;5084632;28;20125;-74
2023/12/10 08:10:59;;;;;;;47.50;7.55;;;;;;;8.87;100.00;100261.28;5090006;28;20044;-75
2023/12/10 08:13:31;;;;;;;35.95;7.47;;;;;;;8.91;100.00;100254.81;5086451;28;20076;-74
2023/12/10 08:16:03;;;;;;;38.45;6.28;;;;;;;8.97;100.00;100283.66;5082677;28;20141;-74
2023/12/10 08:18:29;;;;;;;34.60;5.65;;;;;;;8.99;100.00;100280.91;5089717;28;20028;-75
2023/12/10 08:20:55;;;;;;;32.55;6.38;;;;;;;8.95;100.00;100272.28;5071576;28;20048;-74
2023/12/10 08:23:21;;;;;;;45.30;8.52;;;;;;;8.99;100.00;100276.44;5083784;28;20516;-74
2023/12/10 08:25:49;;;;;;;30.08;5.72;;;;;;;9.00;100.00;100290.59;5068774;28;20702;-75
2023/12/10 08:28:15;;;;;;;42.15;6.45;;;;;;;8.97;100.00;100285.47;5081999;27;20483;-74
2023/12/10 08:30:41;;;;;;;27.15;6.50;;;;;;;9.00;100.00;100288.78;5078501;28;20043;-75
2023/12/10 08:33:06;;;;;;;34.03;6.35;;;;;;;8.97;100.00;100299.63;5083717;28;20039;-73
2023/12/10 08:35:38;;;;;;;34.65;5.55;;;;;;;9.02;100.00;100309.94;5078547;28;20086;-75
2023/12/10 08:38:06;;;;;;;34.30;6.78;;;;;;;8.96;100.00;100307.69;5083591;28;20095;-74
2023/12/10 08:40:35;;;;;;;28.80;6.10;;;;;;;9.11;100.00;100306.69;5073779;28;20119;-74
2023/12/10 08:43:07;;;;;;;55.92;7.88;;;;;;;9.00;100.00;100312.72;5073887;28;20109;-75
2023/12/10 08:45:33;;;;;;;41.10;6.90;;;;;;;9.07;100.00;100310.50;5063470;27;20032;-75
2023/12/10 08:47:59;;;;;;;30.60;5.57;;;;;;;9.10;100.00;100314.78;5092775;28;20553;-75
2023/12/10 08:50:25;;;;;;;39.47;7.82;;;;;;;9.09;100.00;100311.28;5085089;27;20493;-75
2023/12/10 08:52:51;;;;;;;41.67;6.55;;;;;;;9.14;100.00;100326.94;5083041;28;20032;-73
2023/12/10 08:55:17;;;;;;;41.72;6.75;;;;;;;9.16;100.00;100327.66;5090218;27;20336;-75
2023/12/10 08:57:43;;;;;;;39.63;7.72;;;;;;;9.12;100.00;100345.63;5087429;27;20076;-74
2023/12/10 09:00:10;;;;;;;35.88;8.10;;;;;;;9.19;100.00;100346.09;5080195;28;20032;-73
2023/12/10 09:02:38;;;;;;;30.52;6.65;;;;;;;9.13;100.00;100360.63;5081670;28;20040;-75
2023/12/10 09:05:04;;;;;;;33.70;6.18;;;;;;;9.19;100.00;100348.75;5079379;28;21473;-75
2023/12/10 09:07:37;;;;;;;28.40;6.32;;;;;;;9.17;100.00;100356.81;5088950;28;20033;-73
2023/12/10 09:10:06;;;;;;;31.75;7.18;;;;;;;9.15;100.00;100352.56;5064747;28;20139;-74
2023/12/10 09:12:33;;;;;;;34.50;6.72;;;;;;;9.20;100.00;100356.63;5071798;28;20055;-74
2023/12/10 09:15:09;;;;;;;45.42;7.35;;;;;;;9.19;100.00;100362.91;5074071;28;20024;-74
2023/12/10 09:17:39;;;;;;;39.72;6.95;;;;;;;9.22;100.00;100381.31;5080912;28;20032;-74
2023/12/10 09:20:07;;;;;;;42.97;6.10;;;;;;;9.22;100.00;100375.16;5083692;28;20090;-73
2023/12/10 09:22:33;;;;;;;37.83;6.57;;;;;;;9.18;100.00;100381.63;5087853;27;20148;-74
2023/12/10 09:25:08;;;;;;;29.65;6.18;;;;;;;9.20;100.00;100395.69;5086504;28;20032;-74
2023/12/10 09:27:34;;;;;;;28.45;7.20;;;;;;;9.22;100.00;100391.09;5063834;28;20037;-74
2023/12/10 09:30:06;;;;;;;40.78;6.03;;;;;;;9.18;100.00;100382.47;5078988;28;20025;-74
2023/12/10 09:32:38;;;;;;;31.13;5.65;;;;;;;9.25;100.00;100390.91;5089568;28;20043;-74
2023/12/10 09:35:07;;;;;;;38.37;6.87;;;;;;;9.25;100.00;100394.44;5081935;28;20040;-73
2023/12/10 09:37:34;;;;;;;43.50;6.80;;;;;;;9.31;100.00;100396.69;5079714;28;20427;-75
2023/12/10 09:40:07;;;;;;;40.60;6.10;;;;;;;9.35;100.00;100394.69;5070244;28;20078;-74
2023/12/10 09:42:33;;;;;;;34.08;6.60;;;;;;;9.45;100.00;100408.25;5091060;28;20047;-75
2023/12/10 09:44:58;;;;;;;45.35;7.93;;;;;;;9.39;100.00;100409.50;5081917;28;20844;-73
2023/12/10 09:47:28;;;;;;;31.88;6.00;;;;;;;9.37;100.00;100418.53;5061888;28;20039;-74
2023/12/10 09:49:57;;;;;;;34.33;6.03;;;;;;;9.37;100.00;100422.03;5085986;27;20037;-74
2023/12/10 09:52:30;;;;;;;33.30;6.95;;;;;;;9.40;100.00;100428.97;5084493;27;20045;-73
2023/12/10 09:54:56;;;;;;;32.53;6.60;;;;;;;9.47;100.00;100428.47;5081614;27;20157;-73
2023/12/10 09:57:21;;;;;;;44.25;6.18;;;;;;;9.43;100.00;100428.75;5083424;28;20036;-74
2023/12/10 09:59:47;;;;;;;40.83;6.53;;;;;;;9.38;100.00;100418.41;5084764;28;20106;-74
2023/12/10 10:02:15;;;;;;;34.10;7.43;;;;;;;9.47;100.00;100427.63;5063780;28;20100;-73
2023/12/10 10:04:42;;;;;;;32.75;6.20;;;;;;;9.61;100.00;100430.22;5085721;28;20174;-74
2023/12/10 10:07:08;;;;;;;34.78;6.93;;;;;;;9.69;100.00;100424.38;5062276;28;20044;-74
2023/12/10 10:09:38;;;;;;;37.08;7.15;;;;;;;9.59;100.00;100416.19;5088158;27;20036;-74
2023/12/10 10:12:08;;;;;;;37.47;7.47;;;;;;;9.58;100.00;100420.63;5085467;27;20048;-74
2023/12/10 10:14:34;;;;;;;31.50;6.90;;;;;;;9.60;100.00;100415.22;5084205;28;20106;-73
2023/12/10 10:16:59;;;;;;;32.95;7.68;;;;;;;9.56;100.00;100422.53;5084338;27;20074;-74
2023/12/10 10:19:26;;;;;;;38.75;6.35;;;;;;;9.55;100.00;100431.50;5082834;28;20558;-73
2023/12/10 10:21:53;;;;;;;27.08;6.03;;;;;;;9.53;100.00;100427.19;5089194;27;20044;-74
2023/12/10 10:24:21;;;;;;;24.13;5.32;;;;;;;9.66;100.00;100437.91;5086210;28;20115;-73
2023/12/10 10:26:52;;;;;;;31.48;5.30;;;;;;;9.64;100.00;100434.47;5086012;27;20028;-74
2023/12/10 10:29:21;;;;;;;49.28;7.95;;;;;;;9.66;100.00;100441.44;5073981;28;20048;-73
2023/12/10 10:31:50;;;;;;;42.15;6.30;;;;;;;9.70;100.00;100431.44;5076870;28;20808;-73
2023/12/10 10:34:16;;;;;;;35.75;7.07;;;;;;;9.72;100.00;100442.81;5077576;28;20111;-72
2023/12/10 10:36:44;;;;;;;28.45;5.07;;;;;;;9.67;100.00;100431.63;5090483;28;20936;-74
2023/12/10 10:39:10;;;;;;;21.60;5.40;;;;;;;9.66;100.00;100445.91;5083724;28;20028;-74
2023/12/10 10:41:40;;;;;;;26.17;5.75;;;;;;;9.73;100.00;100437.38;5084113;27;20044;-74
2023/12/10 10:44:08;;;;;;;32.90;5.60;;;;;;;9.63;100.00;100430.13;5082768;28;20040;-74
2023/12/10 10:46:37;;;;;;;42.47;7.25;;;;;;;9.68;100.00;100436.00;5060028;28;20033;-73
2023/12/10 10:49:06;;;;;;;33.97;5.57;;;;;;;9.65;100.00;100426.41;5084236;27;20540;-74
2023/12/10 10:51:41;;;;;;;29.75;5.65;;;;;;;9.79;100.00;100425.50;5091078;27;20036;-73
2023/12/10 10:54:07;;;;;;;49.78;6.80;;;;;;;9.71;100.00;100423.34;5107834;27;20062;-75
2023/12/10 10:56:33;;;;;;;41.05;7.18;;;;;;;9.79;100.00;100426.34;5108700;27;20032;-73
2023/12/10 10:59:22;;;;;;;37.50;7.13;;;;;;;9.74;100.00;100428.47;5091418;27;20067;-75
2023/12/10 11:01:48;;;;;;;35.25;5.95;;;;;;;9.88;100.00;100429.34;5077537;27;20127;-74
2023/12/10 11:04:16;;;;;;;35.25;6.18;;;;;;;9.82;100.00;100434.13;5091976;27;20693;-73
2023/12/10 11:06:50;;;;;;;34.83;6.50;;;;;;;9.95;100.00;100428.84;5111494;27;20042;-77
2023/12/10 11:09:17;;;;;;;32.30;7.38;;;;;;;9.89;100.00;100436.38;5109425;27;20138;-73
2023/12/10 11:11:42;;;;;;;32.85;6.95;;;;;;;9.99;100.00;100437.44;5106095;27;20892;-74
2023/12/10 11:14:22;;;;;;;41.38;6.80;;;;;;;9.88;100.00;100443.50;5102456;27;20371;-74
2023/12/10 11:17:02;;;;;;;39.88;6.72;;;;;;;9.93;100.00;100444.06;5104450;27;20031;-74
2023/12/10 11:19:36;;;;;;;26.85;6.68;;;;;;;9.89;100.00;100437.25;5092646;27;20027;-74
2023/12/10 11:22:08;;;;;;;39.97;7.80;;;;;;;9.84;100.00;100434.88;5110475;27;20108;-76
2023/12/10 11:24:34;;;;;;;26.35;6.47;;;;;;;9.95;100.00;100426.19;5106251;27;20028;-75